Priwall — V2OX8 — position and weather

sailwx.info

Track history (hours):
 
Tides and Currents Weather Stations Pressure Air Temp Water Temp Dewpoint Dewpoint Depression Visibility Wind Speed Wind Dir Waves Ship Positions

Priwall

Last reported at 2015-Mar-06 06:33 UTC. Time now 2015-Mar-07 00:06 UTC.
Position N 35°60' W 005°14'.

Length 88 m; draft 5.6 m.

Type: Ship. MMSI: 304739000.

Date/timePositionNaut miles runAvg speedWind from/ knotsBaromVisibWave heightAir tempDewpointWater temp
2015-Mar-06 06:33N 35°60' W 005°14'6 6.1
2015-Mar-06 05:33N 35°59' W 005°22'6 5.7
2015-Mar-06 04:32N 35°57' W 005°28'259 5.2
2015-Mar-04 03:10N 38°20' W 009°59'9 9.1
2015-Mar-04 02:11N 38°28' W 010°02'51 8.6
2015-Mar-03 20:15N 39°20' W 010°06'  
2015-Feb-26 19:27N 50°34' E 000°12'8 8.6
2015-Feb-26 18:33N 50°36' E 000°24'8 7.9
2015-Feb-26 17:33N 50°39' E 000°35'7 7.3
2015-Feb-26 16:33N 50°43' E 000°45'7 6.5
2015-Feb-26 15:33N 50°47' E 000°53'16 6.9
2015-Feb-26 13:19N 50°57' E 001°12'6 8.3
2015-Feb-26 12:33N 51°01' E 001°20'9 8.9
2015-Feb-26 11:33N 51°06' E 001°31'8 8.4
2015-Feb-26 10:33N 51°11' E 001°42'8 7.8
2015-Feb-26 09:33N 51°18' E 001°49'7 7.0
2015-Feb-26 08:34N 51°24' E 001°54'6 6.5
2015-Feb-26 07:33N 51°29' E 001°60'7 6.7
2015-Feb-26 06:33N 51°34' E 002°07'9 7.0
2015-Feb-26 05:19N 51°40' E 002°17'57 8.4
2015-Feb-25 22:33N 52°04' E 003°41'8 8.2
2015-Feb-25 21:33N 52°03' E 003°55'9 8.6
2015-Feb-25 20:33N 51°59' E 004°06'9 8.6
2015-Feb-25 19:33N 51°54' E 004°18'2 2.0
2015-Feb-25 18:28N 51°54' E 004°21'0 0.0
2015-Feb-25 17:31N 51°54' E 004°21'0 0.0
2015-Feb-25 16:31N 51°54' E 004°21'0 0.0
2015-Feb-25 15:19N 51°54' E 004°21'0 0.0
2015-Feb-25 14:31N 51°54' E 004°21'0 0.0
2015-Feb-25 13:22N 51°54' E 004°21'0 0.0
2015-Feb-25 12:31N 51°54' E 004°21'0 0.0
2015-Feb-25 11:22N 51°54' E 004°21'0 0.0
2015-Feb-25 10:22N 51°54' E 004°21'0 0.0
2015-Feb-25 09:28N 51°54' E 004°21'0 0.0
2015-Feb-25 08:31N 51°54' E 004°21'0 0.0
2015-Feb-25 07:28N 51°54' E 004°21'0 0.0
2015-Feb-25 06:31N 51°54' E 004°21'0 0.0
2015-Feb-25 05:31N 51°54' E 004°21'0 0.0
2015-Feb-25 04:28N 51°54' E 004°21'0 0.0
2015-Feb-25 03:28N 51°54' E 004°21'0 0.0
2015-Feb-25 02:31N 51°54' E 004°21'0 0.0
2015-Feb-25 01:28N 51°54' E 004°21'0 0.0
2015-Feb-25 00:31N 51°54' E 004°21'0 0.0
2015-Feb-24 23:31N 51°54' E 004°21'0 0.0
2015-Feb-24 22:31N 51°54' E 004°21'0 0.0
2015-Feb-24 21:28N 51°54' E 004°21'0 0.0
2015-Feb-24 20:25N 51°54' E 004°21'0 0.0
2015-Feb-24 19:31N 51°54' E 004°21'0 0.0
2015-Feb-24 18:22N 51°54' E 004°21'0 0.0
2015-Feb-24 17:28N 51°54' E 004°21'0 0.0
2015-Feb-24 16:27N 51°54' E 004°21'0 0.4
2015-Feb-24 15:33N 51°54' E 004°22'2 1.9
2015-Feb-24 14:33N 51°55' E 004°25'0 0.0
2015-Feb-24 13:33N 51°55' E 004°25'0 0.0
2015-Feb-24 12:33N 51°55' E 004°25'0 0.0
2015-Feb-24 11:33N 51°55' E 004°25'0 0.0
2015-Feb-24 10:33N 51°55' E 004°25'0 0.0
2015-Feb-24 09:33N 51°55' E 004°25'0 0.0
2015-Feb-24 08:33N 51°55' E 004°25'0 0.0
2015-Feb-24 07:33N 51°55' E 004°25'  
Track history (hours):
 
Tides and Currents Weather Stations Pressure Air Temp Water Temp Dewpoint Dewpoint Depression Visibility Wind Speed Wind Dir Waves Ship Positions

Priwall

Last reported at 2015-Mar-06 06:33 UTC. Time now 2015-Mar-07 00:06 UTC.
Position N 35°60' W 005°14'.

Length 88 m; draft 5.6 m.

Type: Ship. MMSI: 304739000.

Date/timePositionNaut miles runAvg speedWind from/ knotsBaromVisibWave heightAir tempDewpointWater temp
2015-Mar-06 06:33N 35°60' W 005°14'6 6.1
2015-Mar-06 05:33N 35°59' W 005°22'6 5.7
2015-Mar-06 04:32N 35°57' W 005°28'259 5.2
2015-Mar-04 03:10N 38°20' W 009°59'9 9.1
2015-Mar-04 02:11N 38°28' W 010°02'51 8.6
2015-Mar-03 20:15N 39°20' W 010°06'  
2015-Feb-26 19:27N 50°34' E 000°12'8 8.6
2015-Feb-26 18:33N 50°36' E 000°24'8 7.9
2015-Feb-26 17:33N 50°39' E 000°35'7 7.3
2015-Feb-26 16:33N 50°43' E 000°45'7 6.5
2015-Feb-26 15:33N 50°47' E 000°53'16 6.9
2015-Feb-26 13:19N 50°57' E 001°12'6 8.3
2015-Feb-26 12:33N 51°01' E 001°20'9 8.9
2015-Feb-26 11:33N 51°06' E 001°31'8 8.4
2015-Feb-26 10:33N 51°11' E 001°42'8 7.8
2015-Feb-26 09:33N 51°18' E 001°49'7 7.0
2015-Feb-26 08:34N 51°24' E 001°54'6 6.5
2015-Feb-26 07:33N 51°29' E 001°60'7 6.7
2015-Feb-26 06:33N 51°34' E 002°07'9 7.0
2015-Feb-26 05:19N 51°40' E 002°17'57 8.4
2015-Feb-25 22:33N 52°04' E 003°41'8 8.2
2015-Feb-25 21:33N 52°03' E 003°55'9 8.6
2015-Feb-25 20:33N 51°59' E 004°06'9 8.6
2015-Feb-25 19:33N 51°54' E 004°18'2 2.0
2015-Feb-25 18:28N 51°54' E 004°21'0 0.0
2015-Feb-25 17:31N 51°54' E 004°21'0 0.0
2015-Feb-25 16:31N 51°54' E 004°21'0 0.0
2015-Feb-25 15:19N 51°54' E 004°21'0 0.0
2015-Feb-25 14:31N 51°54' E 004°21'0 0.0
2015-Feb-25 13:22N 51°54' E 004°21'0 0.0
2015-Feb-25 12:31N 51°54' E 004°21'0 0.0
2015-Feb-25 11:22N 51°54' E 004°21'0 0.0
2015-Feb-25 10:22N 51°54' E 004°21'0 0.0
2015-Feb-25 09:28N 51°54' E 004°21'0 0.0
2015-Feb-25 08:31N 51°54' E 004°21'0 0.0
2015-Feb-25 07:28N 51°54' E 004°21'0 0.0
2015-Feb-25 06:31N 51°54' E 004°21'0 0.0
2015-Feb-25 05:31N 51°54' E 004°21'0 0.0
2015-Feb-25 04:28N 51°54' E 004°21'0 0.0
2015-Feb-25 03:28N 51°54' E 004°21'0 0.0
2015-Feb-25 02:31N 51°54' E 004°21'0 0.0
2015-Feb-25 01:28N 51°54' E 004°21'0 0.0
2015-Feb-25 00:31N 51°54' E 004°21'0 0.0
2015-Feb-24 23:31N 51°54' E 004°21'0 0.0
2015-Feb-24 22:31N 51°54' E 004°21'0 0.0
2015-Feb-24 21:28N 51°54' E 004°21'0 0.0
2015-Feb-24 20:25N 51°54' E 004°21'0 0.0
2015-Feb-24 19:31N 51°54' E 004°21'0 0.0
2015-Feb-24 18:22N 51°54' E 004°21'0 0.0
2015-Feb-24 17:28N 51°54' E 004°21'0 0.0
2015-Feb-24 16:27N 51°54' E 004°21'0 0.4
2015-Feb-24 15:33N 51°54' E 004°22'2 1.9
2015-Feb-24 14:33N 51°55' E 004°25'0 0.0
2015-Feb-24 13:33N 51°55' E 004°25'0 0.0
2015-Feb-24 12:33N 51°55' E 004°25'0 0.0
2015-Feb-24 11:33N 51°55' E 004°25'0 0.0
2015-Feb-24 10:33N 51°55' E 004°25'0 0.0
2015-Feb-24 09:33N 51°55' E 004°25'0 0.0
2015-Feb-24 08:33N 51°55' E 004°25'0 0.0
2015-Feb-24 07:33N 51°55' E 004°25'  

Dump ship's entire track history